ICAO: (seperate multiple stations with a space)
EGTC - No Current METAR

TAF EGTC 201356Z 2015/2019 34010KT 9999 SCT045


EGSC - No Current METAR

TAF EGSC 201356Z 2015/2017 35012KT 9999 SCT045


EGGW 210650Z AUTO 30008KT 9999 NCD M01/M03 Q1038

TAF EGGW 210457Z 2106/2206 30008KT 9999 SCT025


EGUY - No Current METAR